Kezdőlap
METAR-TAF:

METAR-TAF

Repülőterek :

Grand Prairie Municipal Airport

Grand Prairie, Texas, Amerikai Egyesült Államok

földrajzi szélesség: 32-41-55N, földrajzi hosszúság: 097-02-48W, magasság: 180 m

Jelenlegi meteorológiai megfigyelések

A jelentés 33 perccel ezelõtt készült, 10:35 UTC
Szélcsend
Hőmérséklet 25°C
Páratartalom 69%
Légköri nyomás 1015 hPa
Látótávolság: 16.1 km
Derült ég

METAR: KGPM 151035Z AUTO 00000KT 10SM CLR 25/19 A2996 RMK AO2 T02470185

Idő: 06:08 (11:08 UTC)


TAF: hiányzik

Meteorológiai megfigyelések és előrejelzések több, mint 4000 repülőtéren (METAR és TAF jelentéseket).

A térképen piros és sárga pontok jelzik az elérhető meteorológiai állomásokat.

Mozgassa az egeret a pont fölött, hogy megjelenjen az állomás neve.

Azután kattintson az időjárási megfigyelések és előrejelzések megtekintéséhez.

A térkép megváltoztatása: kattintson a fekete keresztel jelölt zöld gombra ráközelítéshez, a vonallal jelölt zöld gombra távolításhoz, vagy a zöld nyilakra a szomszédos térképek eléréséhez.


METAR-TAF: